Time;durP1;ratioP1;P1;durP2;ratioP2;P2;SDS_P1;SDS_P2;PMS_P1;PMS_P2;Temp;Humidity;BMP_temperature;BMP_pressure;BME280_temperature;BME280_humidity;BME280_pressure;Samples;Min_cycle;Max_cycle;Signal;HPM_P1;HPM_P2
2022/05/16 00:01:23;;;;;;;0.22;0.22;;;15.20;99.90;;;;;;5011144;28;20045;-70
2022/05/16 00:03:48;;;;;;;1.65;0.75;;;15.20;99.90;;;;;;5033127;28;20099;-70
2022/05/16 00:06:14;;;;;;;0.08;0.08;;;15.20;99.90;;;;;;5033382;28;20057;-70
2022/05/16 00:08:39;;;;;;;1.27;0.38;;;15.20;99.90;;;;;;5030554;28;20041;-70
2022/05/16 00:11:05;;;;;;;0.60;0.60;;;15.20;99.90;;;;;;5031830;28;20131;-70
2022/05/16 00:13:30;;;;;;;0.03;0.03;;;15.20;99.90;;;;;;5033044;28;20053;-70
2022/05/16 00:15:56;;;;;;;0.40;0.40;;;15.10;99.90;;;;;;5027291;28;20040;-70
2022/05/16 00:18:23;;;;;;;0.00;0.00;;;15.10;99.90;;;;;;5032928;28;20104;-70
2022/05/16 00:20:48;;;;;;;0.00;0.00;;;15.10;99.90;;;;;;5031056;28;20045;-70
2022/05/16 00:23:14;;;;;;;0.10;0.10;;;15.00;99.90;;;;;;5032003;28;20404;-70
2022/05/16 00:25:40;;;;;;;0.00;0.00;;;15.00;99.90;;;;;;5033095;28;20286;-70
2022/05/16 00:28:06;;;;;;;0.10;0.10;;;15.10;99.90;;;;;;5030870;28;20045;-70
2022/05/16 00:30:31;;;;;;;0.35;0.35;;;15.00;99.90;;;;;;5031611;28;20041;-70
2022/05/16 00:32:57;;;;;;;0.10;0.10;;;15.10;99.90;;;;;;5033470;28;20041;-70
2022/05/16 00:35:23;;;;;;;0.75;0.65;;;15.10;99.90;;;;;;5031487;28;20413;-70
2022/05/16 00:37:49;;;;;;;0.52;0.52;;;15.10;99.90;;;;;;5029861;28;20096;-70
2022/05/16 00:40:17;;;;;;;0.35;0.30;;;15.10;99.90;;;;;;5032264;28;20636;-70
2022/05/16 00:42:43;;;;;;;1.00;0.90;;;15.10;99.90;;;;;;5028836;28;20041;-70
2022/05/16 00:45:10;;;;;;;1.08;0.52;;;15.20;99.90;;;;;;5029008;28;20068;-70
2022/05/16 00:47:36;;;;;;;0.00;0.00;;;15.10;99.90;;;;;;5032485;28;20048;-70
2022/05/16 00:50:04;;;;;;;0.20;0.20;;;15.10;99.90;;;;;;5031406;28;20484;-70
2022/05/16 00:52:34;;;;;;;0.15;0.15;;;15.00;99.90;;;;;;5010701;28;20049;-70
2022/05/16 00:55:06;;;;;;;0.10;0.10;;;15.00;99.90;;;;;;5012834;28;20100;-70
2022/05/16 00:57:45;;;;;;;0.08;0.08;;;15.10;99.90;;;;;;5009590;28;20511;-70
2022/05/16 01:00:30;;;;;;;0.60;0.40;;;15.10;99.90;;;;;;5010556;28;20062;-70
2022/05/16 01:05:43;;;;;;;0.52;0.52;;;15.00;99.90;;;;;;5010463;28;20050;-70
2022/05/16 01:08:12;;;;;;;0.10;0.10;;;15.10;99.90;;;;;;5011767;28;20077;-70
2022/05/16 01:10:39;;;;;;;1.23;0.85;;;15.00;99.90;;;;;;5011557;28;20050;-70
2022/05/16 01:13:05;;;;;;;3.42;1.30;;;14.90;99.90;;;;;;5009988;28;20049;-70
2022/05/16 01:15:40;;;;;;;0.55;0.52;;;14.90;99.90;;;;;;5022300;28;20065;-70
2022/05/16 01:18:07;;;;;;;0.25;0.25;;;14.90;99.90;;;;;;5031019;28;20550;-70
2022/05/16 01:20:57;;;;;;;0.10;0.10;;;14.90;99.90;;;;;;5031771;28;20080;-70
2022/05/16 01:23:25;;;;;;;0.03;0.03;;;14.90;99.90;;;;;;5029338;28;20045;-70
2022/05/16 01:25:51;;;;;;;0.10;0.10;;;14.90;99.90;;;;;;5031441;28;20045;-70
2022/05/16 01:28:20;;;;;;;0.38;0.20;;;14.90;99.90;;;;;;5022541;28;20042;-70
2022/05/16 01:30:47;;;;;;;0.08;0.08;;;14.90;99.90;;;;;;5011886;28;20127;-70
2022/05/16 01:33:21;;;;;;;0.82;0.82;;;14.90;99.90;;;;;;5021983;28;20515;-70
2022/05/16 01:35:47;;;;;;;0.10;0.10;;;14.80;99.90;;;;;;5028729;28;20458;-70
2022/05/16 01:38:21;;;;;;;0.35;0.35;;;14.90;99.90;;;;;;5030892;28;20132;-70
2022/05/16 01:40:52;;;;;;;0.20;0.20;;;14.80;99.90;;;;;;5029138;28;20504;-70
2022/05/16 01:43:20;;;;;;;0.20;0.20;;;14.80;99.90;;;;;;5030905;28;20124;-70
2022/05/16 01:45:47;;;;;;;0.08;0.08;;;14.80;99.90;;;;;;5028058;28;20041;-70
2022/05/16 01:48:14;;;;;;;0.10;0.10;;;14.80;99.90;;;;;;5030623;28;20049;-71
2022/05/16 01:50:42;;;;;;;0.00;0.00;;;14.80;99.90;;;;;;5017171;28;20136;-70
2022/05/16 01:53:09;;;;;;;0.47;0.20;;;14.80;99.90;;;;;;5010877;28;20042;-70
2022/05/16 01:55:35;;;;;;;0.13;0.13;;;14.70;99.90;;;;;;5012344;28;20132;-70
2022/05/16 01:58:01;;;;;;;0.20;0.20;;;14.70;99.90;;;;;;5011385;28;20137;-70
2022/05/16 02:00:27;;;;;;;1.40;0.57;;;14.70;99.90;;;;;;5009574;28;20046;-70
2022/05/16 02:02:52;;;;;;;0.13;0.13;;;14.60;99.90;;;;;;5011286;28;20104;-70
2022/05/16 02:05:21;;;;;;;0.00;0.00;;;14.60;99.90;;;;;;5011141;28;20049;-70
2022/05/16 02:07:48;;;;;;;0.10;0.10;;;14.60;99.90;;;;;;5010947;28;20046;-70
2022/05/16 02:10:18;;;;;;;1.92;1.77;;;14.60;99.90;;;;;;5010185;28;20046;-70
2022/05/16 02:12:44;;;;;;;0.20;0.20;;;14.60;99.90;;;;;;5029802;28;20054;-71
2022/05/16 02:15:15;;;;;;;0.00;0.00;;;14.60;99.90;;;;;;5017030;28;20046;-70
2022/05/16 02:17:40;;;;;;;0.28;0.25;;;14.60;99.90;;;;;;5022000;28;20037;-71
2022/05/16 02:20:07;;;;;;;0.40;0.40;;;14.60;99.90;;;;;;5030886;28;20041;-70
2022/05/16 02:25:18;;;;;;;0.10;0.10;;;14.50;99.90;;;;;;5011281;28;20449;-70
2022/05/16 02:27:45;;;;;;;0.10;0.10;;;14.50;99.90;;;;;;5020885;28;20062;-70
2022/05/16 02:30:12;;;;;;;0.20;0.20;;;14.50;99.90;;;;;;5029925;28;20405;-70
2022/05/16 02:32:38;;;;;;;0.22;0.22;;;14.40;99.90;;;;;;5028025;28;20063;-70
2022/05/16 02:35:04;;;;;;;0.22;0.22;;;14.40;99.90;;;;;;5025443;28;20068;-71
2022/05/16 02:37:30;;;;;;;1.98;0.47;;;14.40;99.90;;;;;;5009507;28;20096;-70
2022/05/16 02:39:55;;;;;;;0.32;0.32;;;14.30;99.90;;;;;;5010999;28;20481;-71
2022/05/16 02:42:21;;;;;;;0.00;0.00;;;14.30;99.90;;;;;;5009800;28;20065;-71
2022/05/16 02:44:47;;;;;;;0.10;0.10;;;14.20;99.90;;;;;;5011697;28;20104;-70
2022/05/16 02:47:17;;;;;;;0.10;0.10;;;14.20;99.90;;;;;;5009496;28;20491;-70
2022/05/16 02:49:43;;;;;;;0.20;0.20;;;14.30;99.90;;;;;;5008716;28;20088;-71
2022/05/16 02:52:09;;;;;;;0.10;0.10;;;14.20;99.90;;;;;;5010628;28;20046;-71
2022/05/16 02:54:35;;;;;;;0.00;0.00;;;14.20;99.90;;;;;;5009397;28;20128;-71
2022/05/16 02:57:01;;;;;;;0.10;0.10;;;14.10;99.90;;;;;;5008390;28;20389;-71
2022/05/16 02:59:32;;;;;;;0.05;0.05;;;14.20;99.90;;;;;;5010448;28;20057;-71
2022/05/16 03:02:05;;;;;;;0.10;0.10;;;14.20;99.90;;;;;;5010957;28;20056;-71
2022/05/16 03:04:31;;;;;;;0.03;0.03;;;14.20;99.90;;;;;;5020849;28;20504;-71
2022/05/16 03:06:58;;;;;;;2.92;2.08;;;14.10;99.90;;;;;;5029257;28;20056;-71
2022/05/16 03:09:25;;;;;;;0.10;0.10;;;14.10;99.90;;;;;;5019372;28;20045;-71
2022/05/16 03:11:52;;;;;;;0.15;0.15;;;14.20;99.90;;;;;;5009550;28;20559;-71
2022/05/16 03:14:17;;;;;;;0.60;0.60;;;14.20;99.90;;;;;;5010980;28;20252;-71
2022/05/16 03:16:43;;;;;;;0.43;0.43;;;14.10;99.90;;;;;;5009197;28;20095;-71
2022/05/16 03:19:08;;;;;;;0.30;0.30;;;14.10;99.90;;;;;;5008544;28;20140;-71
2022/05/16 03:21:34;;;;;;;0.10;0.10;;;14.10;99.90;;;;;;5010247;28;20041;-71
2022/05/16 03:24:00;;;;;;;0.10;0.10;;;14.00;99.90;;;;;;5026382;28;20041;-71
2022/05/16 03:26:26;;;;;;;0.20;0.20;;;14.10;99.90;;;;;;5029128;28;20049;-71
2022/05/16 03:28:52;;;;;;;0.30;0.30;;;14.00;99.90;;;;;;5009802;28;20041;-71
2022/05/16 03:31:18;;;;;;;0.10;0.10;;;14.00;99.90;;;;;;5010372;28;20398;-71
2022/05/16 03:33:43;;;;;;;0.30;0.30;;;14.00;99.90;;;;;;5008221;28;20371;-71
2022/05/16 03:36:10;;;;;;;0.10;0.10;;;14.00;99.90;;;;;;5010110;28;20104;-71
2022/05/16 03:41:20;;;;;;;0.10;0.10;;;14.00;99.90;;;;;;5009741;28;20481;-71
2022/05/16 03:43:46;;;;;;;0.10;0.10;;;13.90;99.90;;;;;;5009204;28;20478;-71
2022/05/16 03:46:12;;;;;;;0.00;0.00;;;13.90;99.90;;;;;;5009224;28;20064;-71
2022/05/16 03:48:38;;;;;;;1.98;0.90;;;13.90;99.90;;;;;;5009798;28;20129;-71
2022/05/16 03:51:05;;;;;;;0.10;0.10;;;13.90;99.90;;;;;;5011714;28;20124;-71
2022/05/16 03:53:31;;;;;;;0.10;0.10;;;14.00;99.90;;;;;;5013173;28;20058;-71
2022/05/16 03:55:57;;;;;;;0.10;0.10;;;13.90;99.90;;;;;;5012962;28;20125;-71
2022/05/16 03:58:23;;;;;;;0.20;0.20;;;14.10;99.90;;;;;;5011489;28;20149;-71
2022/05/16 04:00:48;;;;;;;0.77;0.77;;;14.00;99.90;;;;;;5032256;28;20049;-71
2022/05/16 04:03:15;;;;;;;0.10;0.10;;;14.00;99.90;;;;;;5033390;28;20045;-71
2022/05/16 04:05:41;;;;;;;0.10;0.10;;;14.00;99.90;;;;;;5031950;28;20067;-71
2022/05/16 04:08:07;;;;;;;0.20;0.20;;;14.00;99.90;;;;;;5019795;28;20046;-71
2022/05/16 04:10:33;;;;;;;0.82;0.82;;;14.10;99.90;;;;;;5013183;28;20084;-71
2022/05/16 04:12:58;;;;;;;0.20;0.20;;;14.00;99.90;;;;;;5013555;28;20132;-71
2022/05/16 04:15:25;;;;;;;0.55;0.52;;;14.00;99.90;;;;;;5014266;28;20050;-70
2022/05/16 04:17:51;;;;;;;0.30;0.30;;;14.10;99.90;;;;;;5028678;28;20156;-71
2022/05/16 04:20:19;;;;;;;0.43;0.43;;;14.10;99.90;;;;;;5033143;28;20057;-71
2022/05/16 04:22:44;;;;;;;0.50;0.50;;;14.10;99.90;;;;;;5028800;28;20489;-71
2022/05/16 04:25:13;;;;;;;0.65;0.52;;;14.10;99.90;;;;;;5031188;28;20107;-71
2022/05/16 04:27:39;;;;;;;0.10;0.10;;;14.10;99.90;;;;;;5031115;28;20136;-71
2022/05/16 04:30:05;;;;;;;0.10;0.10;;;14.10;99.90;;;;;;5032278;28;20128;-71
2022/05/16 04:32:30;;;;;;;0.00;0.00;;;14.10;99.90;;;;;;5030673;28;20092;-71
2022/05/16 04:34:56;;;;;;;0.10;0.10;;;14.10;99.90;;;;;;5032291;28;20126;-70
2022/05/16 04:37:22;;;;;;;0.00;0.00;;;14.20;99.90;;;;;;5030220;28;20042;-71
2022/05/16 04:39:48;;;;;;;0.10;0.10;;;14.30;99.90;;;;;;5033262;28;20046;-71
2022/05/16 04:44:57;;;;;;;0.10;0.10;;;14.30;99.90;;;;;;5018272;28;20065;-70
2022/05/16 04:47:23;;;;;;;0.93;0.75;;;14.20;99.90;;;;;;5012932;28;20046;-70
2022/05/16 04:49:49;;;;;;;0.55;0.55;;;14.30;99.90;;;;;;5011223;28;20050;-71
2022/05/16 04:52:14;;;;;;;0.08;0.08;;;14.30;99.90;;;;;;5030002;28;20068;-70
2022/05/16 04:54:40;;;;;;;0.25;0.25;;;14.30;99.90;;;;;;5028248;28;20371;-70
2022/05/16 04:57:06;;;;;;;0.10;0.10;;;14.30;99.90;;;;;;5031742;28;20496;-70
2022/05/16 04:59:32;;;;;;;0.20;0.20;;;14.30;99.90;;;;;;5032495;28;20057;-70
2022/05/16 05:01:58;;;;;;;0.10;0.10;;;14.40;99.90;;;;;;5031375;28;20081;-70
2022/05/16 05:04:24;;;;;;;0.10;0.10;;;14.40;99.90;;;;;;5029804;28;20084;-70
2022/05/16 05:06:50;;;;;;;0.00;0.00;;;14.50;99.90;;;;;;5029811;28;22845;-70
2022/05/16 05:09:16;;;;;;;0.40;0.38;;;14.40;99.90;;;;;;5013747;28;20494;-70
2022/05/16 05:14:32;;;;;;;0.00;0.00;;;14.60;99.90;;;;;;5014141;28;20485;-70
2022/05/16 05:17:06;;;;;;;0.00;0.00;;;14.60;99.90;;;;;;5019413;28;20041;-70
2022/05/16 05:19:33;;;;;;;0.10;0.10;;;14.60;99.90;;;;;;5032267;28;20088;-70
2022/05/16 05:21:59;;;;;;;0.00;0.00;;;14.70;99.90;;;;;;5032010;28;20056;-71
2022/05/16 05:24:25;;;;;;;0.10;0.10;;;14.70;99.90;;;;;;5028863;28;20075;-70
2022/05/16 05:26:51;;;;;;;0.35;0.35;;;14.70;99.90;;;;;;5031836;28;20045;-70
2022/05/16 05:29:18;;;;;;;0.10;0.10;;;14.70;99.90;;;;;;5031578;28;20556;-70
2022/05/16 05:31:44;;;;;;;0.10;0.10;;;14.70;99.90;;;;;;5019609;28;20080;-70
2022/05/16 05:34:11;;;;;;;0.10;0.10;;;14.70;99.90;;;;;;5011932;28;20079;-70
2022/05/16 05:36:41;;;;;;;0.55;0.55;;;14.70;99.90;;;;;;5023369;28;20394;-70
2022/05/16 05:39:07;;;;;;;0.10;0.10;;;14.60;99.90;;;;;;5030907;28;20136;-70
2022/05/16 05:41:32;;;;;;;0.00;0.00;;;14.60;99.90;;;;;;5028828;28;20497;-70
2022/05/16 05:43:58;;;;;;;0.00;0.00;;;14.60;99.90;;;;;;5011073;28;20077;-70
2022/05/16 05:46:24;;;;;;;0.00;0.00;;;14.60;99.90;;;;;;5010239;28;20042;-70
2022/05/16 05:48:49;;;;;;;0.00;0.00;;;14.70;99.90;;;;;;5011385;28;20045;-70
2022/05/16 05:51:16;;;;;;;0.43;0.43;;;14.70;99.90;;;;;;5011532;28;20053;-70
2022/05/16 05:53:42;;;;;;;0.10;0.10;;;14.70;99.90;;;;;;5020537;28;20497;-70
2022/05/16 05:56:10;;;;;;;0.00;0.00;;;14.80;99.90;;;;;;5029216;28;20041;-70
2022/05/16 05:58:36;;;;;;;0.10;0.10;;;14.90;99.90;;;;;;5030816;28;20049;-71
2022/05/16 06:01:03;;;;;;;0.30;0.30;;;15.00;99.90;;;;;;5026662;28;20055;-70
2022/05/16 06:03:28;;;;;;;0.05;0.05;;;15.10;99.90;;;;;;5009795;28;20050;-70
2022/05/16 06:05:54;;;;;;;0.10;0.10;;;15.00;99.90;;;;;;5010306;28;20054;-70
2022/05/16 06:08:20;;;;;;;0.10;0.10;;;15.00;99.90;;;;;;5008997;28;20111;-70
2022/05/16 06:10:47;;;;;;;0.10;0.10;;;15.10;99.90;;;;;;5025415;28;20053;-70
2022/05/16 06:13:12;;;;;;;0.20;0.20;;;15.10;99.90;;;;;;5028851;28;20550;-70
2022/05/16 06:15:38;;;;;;;0.10;0.10;;;15.30;99.90;;;;;;5011837;28;20152;-70
2022/05/16 06:18:04;;;;;;;0.20;0.20;;;15.40;99.90;;;;;;5008645;28;20054;-70
2022/05/16 06:20:30;;;;;;;0.10;0.10;;;15.50;99.90;;;;;;5011562;28;20068;-70
2022/05/16 06:22:56;;;;;;;0.77;0.77;;;15.70;99.90;;;;;;5031162;28;20053;-70
2022/05/16 06:25:32;;;;;;;0.80;0.50;;;15.80;99.90;;;;;;5029111;28;20132;-70
2022/05/16 06:28:00;;;;;;;0.08;0.08;;;15.80;99.90;;;;;;5029443;28;20124;-70
2022/05/16 06:30:26;;;;;;;0.00;0.00;;;15.90;99.90;;;;;;5029275;28;20409;-71
2022/05/16 06:32:52;;;;;;;0.17;0.17;;;15.90;99.90;;;;;;5031067;28;20054;-70
2022/05/16 06:35:18;;;;;;;0.50;0.50;;;16.00;99.90;;;;;;5023885;28;20217;-70
2022/05/16 06:37:43;;;;;;;0.00;0.00;;;16.10;99.90;;;;;;5010726;28;20042;-70
2022/05/16 06:40:10;;;;;;;0.10;0.10;;;16.20;99.90;;;;;;5017639;28;20053;-70
2022/05/16 06:42:36;;;;;;;0.10;0.10;;;16.30;99.90;;;;;;5030059;28;20382;-70
2022/05/16 06:45:03;;;;;;;0.10;0.10;;;16.30;99.90;;;;;;5030761;28;20052;-70
2022/05/16 06:47:28;;;;;;;1.38;0.52;;;16.40;99.90;;;;;;5030668;28;20037;-70
2022/05/16 06:49:54;;;;;;;0.10;0.10;;;16.50;99.90;;;;;;5028202;28;20789;-70
2022/05/16 06:52:20;;;;;;;0.00;0.00;;;16.70;99.90;;;;;;5028806;28;20382;-71
2022/05/16 06:54:45;;;;;;;0.05;0.05;;;16.80;99.90;;;;;;5029687;28;20045;-71
2022/05/16 06:57:11;;;;;;;0.00;0.00;;;16.90;99.90;;;;;;5017008;28;20061;-71
2022/05/16 06:59:37;;;;;;;0.10;0.10;;;16.90;99.90;;;;;;5010355;28;20062;-71
2022/05/16 07:02:05;;;;;;;0.10;0.10;;;17.00;99.90;;;;;;5010897;28;20057;-71
2022/05/16 07:04:31;;;;;;;1.10;1.10;;;17.20;99.90;;;;;;5008849;28;20073;-71
2022/05/16 07:06:57;;;;;;;0.15;0.15;;;17.30;99.90;;;;;;5011700;28;20085;-71
2022/05/16 07:09:23;;;;;;;0.03;0.03;;;17.30;99.90;;;;;;5010391;28;20064;-71
2022/05/16 07:11:48;;;;;;;0.10;0.10;;;17.40;99.90;;;;;;5020260;28;20493;-71
2022/05/16 07:14:14;;;;;;;0.30;0.30;;;17.40;99.90;;;;;;5024484;28;20117;-71
2022/05/16 07:16:40;;;;;;;0.40;0.40;;;17.50;99.90;;;;;;5010125;28;20374;-71
2022/05/16 07:19:06;;;;;;;0.75;0.38;;;17.60;99.90;;;;;;5027016;28;20038;-71
2022/05/16 07:21:32;;;;;;;0.00;0.00;;;17.70;99.90;;;;;;5030336;28;20041;-71
2022/05/16 07:23:58;;;;;;;0.10;0.10;;;17.70;99.90;;;;;;5011400;28;20387;-71
2022/05/16 07:29:08;;;;;;;0.10;0.10;;;17.90;99.90;;;;;;5028932;28;20088;-71
2022/05/16 07:31:34;;;;;;;0.03;0.03;;;17.90;99.90;;;;;;5032026;28;20077;-71
2022/05/16 07:34:00;;;;;;;0.00;0.00;;;17.90;99.90;;;;;;5034167;28;20398;-71
2022/05/16 07:36:26;;;;;;;0.10;0.10;;;18.00;99.90;;;;;;5011295;28;20050;-71
2022/05/16 07:38:52;;;;;;;0.28;0.22;;;18.00;99.90;;;;;;5010994;28;20052;-71
2022/05/16 07:41:17;;;;;;;0.10;0.10;;;18.10;99.90;;;;;;5013823;28;20045;-71
2022/05/16 07:43:44;;;;;;;0.20;0.20;;;18.20;99.90;;;;;;5017627;28;20052;-71
2022/05/16 07:46:09;;;;;;;0.00;0.00;;;18.30;99.90;;;;;;5032808;28;20041;-71
2022/05/16 07:48:35;;;;;;;6.82;1.40;;;18.40;99.90;;;;;;5033650;28;20048;-71
2022/05/16 07:51:01;;;;;;;0.00;0.00;;;18.50;99.90;;;;;;5030862;28;20511;-71
2022/05/16 07:53:27;;;;;;;0.10;0.10;;;18.60;99.90;;;;;;5032708;28;20047;-71
2022/05/16 07:55:54;;;;;;;0.10;0.10;;;18.80;99.90;;;;;;5031725;28;20041;-71
2022/05/16 07:58:21;;;;;;;0.00;0.00;;;18.90;99.90;;;;;;5033214;28;20475;-70
2022/05/16 08:00:50;;;;;;;1.38;0.63;;;19.00;99.90;;;;;;5014057;28;20059;-71
2022/05/16 08:03:21;;;;;;;0.20;0.20;;;19.00;99.90;;;;;;5013888;28;20060;-71
2022/05/16 08:05:48;;;;;;;0.10;0.10;;;19.00;99.90;;;;;;5012327;28;20050;-71
2022/05/16 08:11:00;;;;;;;0.17;0.17;;;18.90;99.90;;;;;;5012157;28;20054;-71
2022/05/16 08:13:28;;;;;;;0.10;0.10;;;19.00;99.90;;;;;;5015008;28;20065;-71
2022/05/16 08:15:54;;;;;;;0.25;0.25;;;19.10;99.90;;;;;;5013689;28;20543;-71
2022/05/16 08:18:19;;;;;;;0.10;0.10;;;19.20;99.90;;;;;;5013188;28;20045;-71
2022/05/16 08:20:47;;;;;;;0.00;0.00;;;19.30;99.90;;;;;;5015285;28;20389;-71
2022/05/16 08:23:16;;;;;;;0.40;0.40;;;19.30;99.90;;;;;;5013474;28;20046;-71
2022/05/16 08:25:45;;;;;;;0.10;0.10;;;19.50;99.90;;;;;;5011885;28;20115;-71
2022/05/16 08:28:11;;;;;;;0.10;0.10;;;19.60;99.90;;;;;;5012787;28;20050;-71
2022/05/16 08:30:37;;;;;;;0.20;0.20;;;19.70;99.90;;;;;;5012829;28;20076;-71
2022/05/16 08:33:03;;;;;;;0.40;0.40;;;19.70;99.90;;;;;;5021439;28;20041;-71
2022/05/16 08:35:30;;;;;;;0.10;0.10;;;19.80;99.90;;;;;;5031359;28;20041;-71
2022/05/16 08:41:02;;;;;;;0.30;0.30;;;20.10;99.90;;;;;;5027095;28;20049;-71
2022/05/16 08:43:49;;;;;;;0.15;0.15;;;20.20;99.90;;;;;;5032690;28;20504;-71
2022/05/16 08:46:31;;;;;;;0.10;0.10;;;20.20;99.90;;;;;;5021718;28;20875;-71
2022/05/16 08:49:01;;;;;;;0.00;0.00;;;20.30;99.90;;;;;;5012514;28;20053;-71
2022/05/16 08:51:30;;;;;;;0.10;0.10;;;20.40;99.90;;;;;;5012849;28;20112;-71
2022/05/16 08:54:24;;;;;;;0.00;0.00;;;20.60;99.90;;;;;;5023078;28;20048;-71
2022/05/16 08:56:51;;;;;;;0.00;0.00;;;20.70;99.90;;;;;;5031761;28;20045;-71
2022/05/16 08:59:24;;;;;;;0.10;0.10;;;20.80;99.90;;;;;;5032103;28;20501;-71
2022/05/16 09:01:56;;;;;;;1.60;0.65;;;20.90;99.90;;;;;;5032206;28;20552;-71
2022/05/16 09:04:43;;;;;;;0.90;0.45;;;20.90;99.90;;;;;;5013120;28;20516;-71
2022/05/16 09:07:34;;;;;;;0.63;0.35;;;20.90;99.90;;;;;;5012547;28;20065;-71
2022/05/16 09:10:12;;;;;;;0.00;0.00;;;21.20;99.90;;;;;;5011714;28;20081;-71
2022/05/16 09:12:46;;;;;;;0.05;0.05;;;21.30;99.90;;;;;;5011201;28;20104;-71
2022/05/16 09:15:51;;;;;;;0.15;0.15;;;21.60;99.90;;;;;;5027009;28;20125;-71
2022/05/16 09:18:29;;;;;;;1.55;0.77;;;21.80;99.90;;;;;;5031030;28;20405;-70
2022/05/16 09:21:15;;;;;;;0.20;0.20;;;21.80;99.90;;;;;;5030238;28;20049;-70
2022/05/16 09:23:53;;;;;;;0.00;0.00;;;21.80;99.90;;;;;;5029613;28;20095;-70
2022/05/16 09:26:32;;;;;;;0.32;0.32;;;22.10;99.90;;;;;;5029261;28;20073;-70
2022/05/16 09:29:24;;;;;;;0.08;0.08;;;22.20;99.90;;;;;;5030184;28;20056;-70
2022/05/16 09:31:53;;;;;;;0.00;0.00;;;22.40;99.90;;;;;;5031460;28;20128;-70
2022/05/16 09:34:19;;;;;;;0.30;0.28;;;22.60;99.90;;;;;;5030454;28;20041;-71
2022/05/16 09:36:49;;;;;;;1.42;1.33;;;22.70;99.90;;;;;;5013181;28;20045;-71
2022/05/16 09:39:21;;;;;;;0.43;0.38;;;22.90;99.90;;;;;;5011185;28;20048;-71
2022/05/16 09:42:10;;;;;;;2.55;1.55;;;22.90;99.90;;;;;;5011961;28;20080;-71
2022/05/16 09:44:46;;;;;;;0.40;0.40;;;23.20;99.90;;;;;;5017239;28;20048;-71
2022/05/16 09:47:37;;;;;;;3.75;1.75;;;23.10;99.90;;;;;;5030293;28;20053;-71
2022/05/16 09:50:02;;;;;;;1.75;1.65;;;23.00;99.90;;;;;;5017795;28;20112;-71
2022/05/16 09:52:31;;;;;;;0.35;0.28;;;22.70;99.90;;;;;;5010919;28;20450;-71
2022/05/16 09:55:03;;;;;;;0.03;0.03;;;22.60;99.90;;;;;;5025538;28;20042;-71
2022/05/16 09:57:37;;;;;;;0.10;0.10;;;22.50;99.90;;;;;;5031348;28;20042;-71
2022/05/16 10:00:21;;;;;;;0.38;0.38;;;22.50;99.90;;;;;;5030334;28;20421;-71
2022/05/16 10:02:59;;;;;;;0.10;0.10;;;22.50;99.90;;;;;;5029289;28;20111;-71
2022/05/16 10:05:31;;;;;;;0.00;0.00;;;22.40;99.90;;;;;;5030240;28;20069;-71
2022/05/16 10:08:14;;;;;;;0.00;0.00;;;22.30;99.90;;;;;;5025978;28;20092;-71
2022/05/16 10:10:42;;;;;;;0.13;0.13;;;22.20;99.90;;;;;;5030858;28;20053;-71
2022/05/16 10:13:07;;;;;;;0.00;0.00;;;22.10;99.90;;;;;;5024396;28;20120;-71
2022/05/16 10:15:35;;;;;;;0.43;0.43;;;21.90;99.90;;;;;;5012725;28;20117;-71
2022/05/16 10:18:02;;;;;;;0.43;0.43;;;21.90;99.90;;;;;;5010886;28;20568;-71
2022/05/16 10:20:35;;;;;;;0.00;0.00;;;21.80;99.90;;;;;;5010274;28;20072;-71
2022/05/16 10:23:05;;;;;;;0.28;0.28;;;21.70;99.90;;;;;;5011718;28;20061;-71
2022/05/16 10:25:39;;;;;;;0.05;0.05;;;21.70;99.90;;;;;;5010793;28;20493;-71
2022/05/16 10:28:12;;;;;;;0.85;0.63;;;21.70;99.90;;;;;;5010545;28;20073;-71
2022/05/16 10:33:26;;;;;;;0.25;0.25;;;21.70;99.90;;;;;;5027674;28;19967;-71
2022/05/16 10:36:13;;;;;;;0.73;0.73;;;21.80;99.90;;;;;;5030074;28;20497;-71
2022/05/16 10:39:03;;;;;;;0.10;0.10;;;21.90;99.90;;;;;;5030729;28;20052;-72
2022/05/16 10:41:43;;;;;;;0.17;0.17;;;21.90;99.90;;;;;;5015556;28;20077;-71
2022/05/16 10:44:23;;;;;;;0.20;0.10;;;21.90;99.90;;;;;;5009519;28;20180;-71
2022/05/16 10:47:15;;;;;;;0.25;0.25;;;22.00;99.90;;;;;;5025767;28;20363;-71
2022/05/16 10:49:51;;;;;;;0.00;0.00;;;22.10;99.90;;;;;;5029164;28;20057;-71
2022/05/16 10:52:38;;;;;;;0.40;0.40;;;22.10;99.90;;;;;;5029169;28;20393;-71
2022/05/16 10:55:05;;;;;;;1.27;0.70;;;22.20;99.90;;;;;;5018340;28;20037;-71
2022/05/16 10:57:57;;;;;;;10.82;0.77;;;22.30;99.90;;;;;;5010600;28;20046;-71
2022/05/16 11:00:40;;;;;;;0.10;0.10;;;22.40;99.90;;;;;;5010116;28;20123;-71
2022/05/16 11:03:29;;;;;;;5.82;0.52;;;22.60;99.90;;;;;;5024536;28;20041;-71
2022/05/16 11:06:34;;;;;;;4.05;1.52;;;23.00;99.90;;;;;;5030604;28;20103;-71
2022/05/16 11:09:03;;;;;;;0.10;0.10;;;23.50;99.90;;;;;;5026336;28;20049;-71
2022/05/16 11:11:34;;;;;;;0.00;0.00;;;23.80;99.90;;;;;;5030168;28;20057;-71
2022/05/16 11:14:15;;;;;;;0.00;0.00;;;23.80;99.90;;;;;;5015094;28;20049;-71
2022/05/16 11:16:40;;;;;;;2.38;1.08;;;23.80;99.90;;;;;;5009876;28;20046;-71
2022/05/16 11:19:23;;;;;;;0.15;0.15;;;23.70;99.90;;;;;;5008985;28;20049;-71
2022/05/16 11:22:04;;;;;;;0.93;0.83;;;23.60;99.90;;;;;;5010524;28;20049;-70
2022/05/16 11:24:35;;;;;;;0.10;0.10;;;23.50;99.90;;;;;;5009783;28;20096;-70
2022/05/16 11:27:19;;;;;;;2.92;0.28;;;23.50;99.90;;;;;;5014462;28;20048;-70
2022/05/16 11:29:53;;;;;;;0.00;0.00;;;23.50;99.90;;;;;;5030099;28;20077;-70
2022/05/16 11:32:42;;;;;;;0.15;0.15;;;23.50;99.90;;;;;;5027263;28;20052;-70
2022/05/16 11:35:24;;;;;;;0.10;0.10;;;23.40;99.90;;;;;;5025510;28;20072;-70
2022/05/16 11:38:02;;;;;;;0.55;0.55;;;23.40;99.90;;;;;;5027465;28;20046;-70
2022/05/16 11:40:46;;;;;;;7.75;0.80;;;23.30;99.90;;;;;;5029718;28;20132;-70
2022/05/16 11:43:33;;;;;;;0.13;0.10;;;23.20;99.90;;;;;;5009275;28;20498;-70
2022/05/16 11:46:04;;;;;;;0.20;0.20;;;23.40;99.90;;;;;;5009478;28;20049;-70
2022/05/16 11:48:54;;;;;;;0.32;0.32;;;23.40;99.90;;;;;;5024575;28;20489;-70
2022/05/16 11:51:43;;;;;;;0.30;0.20;;;23.40;99.90;;;;;;5007452;28;20588;-70
2022/05/16 11:54:12;;;;;;;0.00;0.00;;;23.40;99.90;;;;;;5010193;28;20110;-70
2022/05/16 12:02:48;;;;;;;0.95;0.77;;;23.60;99.90;;;;;;5027525;28;20050;-70
2022/05/16 12:05:22;;;;;;;0.15;0.08;;;23.70;99.90;;;;;;5028774;28;20045;-70
2022/05/16 12:08:09;;;;;;;4.28;1.27;;;23.70;99.90;;;;;;5026005;28;20374;-69
2022/05/16 12:10:55;;;;;;;0.10;0.10;;;23.60;99.90;;;;;;5028761;28;20504;-70
2022/05/16 12:13:29;;;;;;;1.55;0.98;;;23.50;99.90;;;;;;5032070;28;20045;-70
2022/05/16 12:16:13;;;;;;;0.40;0.40;;;23.50;99.90;;;;;;5013844;28;20502;-70
2022/05/16 12:18:43;;;;;;;0.30;0.30;;;23.40;99.90;;;;;;5030476;28;20053;-70
2022/05/16 12:21:11;;;;;;;0.82;0.80;;;23.40;99.90;;;;;;5016180;28;20052;-70
2022/05/16 12:23:52;;;;;;;0.10;0.10;;;23.40;99.90;;;;;;5013047;28;20046;-70
2022/05/16 12:26:27;;;;;;;1.10;0.55;;;23.50;99.90;;;;;;5029679;28;20068;-69
2022/05/16 12:29:11;;;;;;;0.93;0.82;;;23.80;99.90;;;;;;5033308;28;20091;-70
2022/05/16 12:31:53;;;;;;;0.85;0.75;;;24.30;99.90;;;;;;5016369;28;20456;-70
2022/05/16 12:34:34;;;;;;;0.70;0.52;;;24.30;99.90;;;;;;5010593;28;20042;-70
2022/05/16 12:37:04;;;;;;;4.10;0.30;;;24.20;99.90;;;;;;5020108;28;20103;-69
2022/05/16 12:39:43;;;;;;;0.55;0.35;;;24.10;99.90;;;;;;5031148;28;20366;-70
2022/05/16 12:42:49;;;;;;;0.20;0.20;;;24.00;99.90;;;;;;5014660;28;20077;-70
2022/05/16 12:45:19;;;;;;;0.00;0.00;;;24.00;99.90;;;;;;5020456;28;20059;-70
2022/05/16 12:48:09;;;;;;;6.13;0.28;;;24.10;99.90;;;;;;5029043;28;20150;-70
2022/05/16 12:50:40;;;;;;;0.00;0.00;;;24.20;99.90;;;;;;5031961;28;20057;-70
2022/05/16 12:53:43;;;;;;;0.60;0.28;;;24.50;99.90;;;;;;5032530;28;20124;-70
2022/05/16 12:56:19;;;;;;;0.30;0.10;;;24.40;99.90;;;;;;5029685;28;20508;-70
2022/05/16 12:59:09;;;;;;;0.70;0.50;;;24.20;99.90;;;;;;5030250;28;20187;-69
2022/05/16 13:01:44;;;;;;;3.08;1.20;;;24.00;99.90;;;;;;5010086;28;20489;-70
2022/05/16 13:04:32;;;;;;;1.02;0.73;;;24.30;99.90;;;;;;5012540;28;20049;-69
2022/05/16 13:07:06;;;;;;;0.00;0.00;;;25.00;99.90;;;;;;5013021;28;20081;-69
2022/05/16 13:09:59;;;;;;;0.50;0.40;;;25.10;99.90;;;;;;5018017;28;20132;-70
2022/05/16 13:12:37;;;;;;;0.30;0.30;;;24.90;99.90;;;;;;5032493;28;20053;-69
2022/05/16 13:15:26;;;;;;;16.17;0.57;;;25.30;99.90;;;;;;5012981;28;20208;-69
2022/05/16 13:18:00;;;;;;;1.98;0.73;;;25.10;99.90;;;;;;5010382;28;20045;-69
2022/05/16 13:20:34;;;;;;;0.22;0.22;;;25.20;99.90;;;;;;5012017;28;20383;-70
2022/05/16 13:23:01;;;;;;;0.20;0.20;;;25.50;99.90;;;;;;5011125;28;20077;-70
2022/05/16 13:25:29;;;;;;;0.00;0.00;;;25.60;99.90;;;;;;5009161;28;20045;-69
2022/05/16 13:30:43;;;;;;;0.00;0.00;;;25.90;99.90;;;;;;5009612;28;20141;-69
2022/05/16 13:33:33;;;;;;;0.93;0.70;;;26.10;99.90;;;;;;5011774;28;20490;-70
2022/05/16 13:36:19;;;;;;;10.63;1.15;;;26.30;99.90;;;;;;5019236;28;20079;-69
2022/05/16 13:38:52;;;;;;;0.28;0.28;;;26.50;99.90;;;;;;5031097;28;20057;-70